Time;durP1;ratioP1;P1;durP2;ratioP2;P2;SDS_P1;SDS_P2;PMS_P1;PMS_P2;Temp;Humidity;BMP_temperature;BMP_pressure;BME280_temperature;BME280_humidity;BME280_pressure;Samples;Min_cycle;Max_cycle;Signal;HPM_P1;HPM_P2
2023/04/18 00:00:38;;;;;;;9.20;3.67;;;;;;;;;;4935660;29;20055;-66
2023/04/18 00:03:08;;;;;;;6.05;3.35;;;;;;;;;;4951127;29;20058;-66
2023/04/18 00:05:39;;;;;;;6.90;3.33;;;;;;;;;;4950864;29;20051;-65
2023/04/18 00:08:09;;;;;;;6.70;3.40;;;;;;;;;;4950533;29;20407;-66
2023/04/18 00:10:40;;;;;;;7.57;3.38;;;;;;;;;;4950674;29;20526;-66
2023/04/18 00:13:10;;;;;;;7.18;3.40;;;;;;;;;;4959987;28;20051;-65
2023/04/18 00:15:42;;;;;;;9.45;3.78;;;;;;;;;;4953716;28;20062;-66
2023/04/18 00:18:16;;;;;;;8.48;3.75;;;;;;;;;;4970040;28;20581;-65
2023/04/18 00:20:47;;;;;;;10.00;3.63;;;;;;;;;;4959363;28;20531;-66
2023/04/18 00:23:20;;;;;;;7.53;3.50;;;;;;;;;;4958469;28;20058;-65
2023/04/18 00:25:50;;;;;;;6.97;3.63;;;;;;;;;;4950798;29;20055;-66
2023/04/18 00:28:20;;;;;;;8.27;3.70;;;;;;;;;;4934598;29;20051;-66
2023/04/18 00:30:50;;;;;;;10.10;3.53;;;;;;;;;;4971634;28;20066;-66
2023/04/18 00:33:20;;;;;;;6.47;3.25;;;;;;;;;;4989164;28;20055;-66
2023/04/18 00:35:53;;;;;;;8.48;3.88;;;;;;;;;;4972901;28;20053;-65
2023/04/18 00:38:23;;;;;;;7.63;4.00;;;;;;;;;;4957622;28;20442;-65
2023/04/18 00:40:53;;;;;;;7.20;3.65;;;;;;;;;;4958062;28;20062;-65
2023/04/18 00:43:23;;;;;;;10.82;3.55;;;;;;;;;;4950501;29;20048;-65
2023/04/18 00:45:55;;;;;;;7.47;3.65;;;;;;;;;;4950559;29;20052;-66
2023/04/18 00:48:25;;;;;;;8.63;4.15;;;;;;;;;;4950454;29;20063;-65
2023/04/18 00:50:56;;;;;;;11.40;5.00;;;;;;;;;;4950390;29;20407;-66
2023/04/18 00:53:28;;;;;;;11.82;4.53;;;;;;;;;;4877577;29;20059;-66
2023/04/18 00:55:58;;;;;;;9.07;4.15;;;;;;;;;;4874775;29;20049;-65
2023/04/18 00:58:29;;;;;;;10.15;4.00;;;;;;;;;;4866468;29;20096;-65
2023/04/18 01:01:00;;;;;;;7.80;4.13;;;;;;;;;;4856200;29;20506;-65
2023/04/18 01:03:31;;;;;;;9.20;4.15;;;;;;;;;;4855890;29;20068;-65
2023/04/18 01:06:02;;;;;;;7.53;4.72;;;;;;;;;;4874534;29;20421;-65
2023/04/18 01:08:33;;;;;;;7.53;4.03;;;;;;;;;;4874308;29;20057;-65
2023/04/18 01:11:03;;;;;;;8.15;3.65;;;;;;;;;;4874662;29;20053;-65
2023/04/18 01:13:33;;;;;;;8.90;3.97;;;;;;;;;;4874430;29;20061;-65
2023/04/18 01:16:04;;;;;;;8.88;3.97;;;;;;;;;;4859117;29;20113;-65
2023/04/18 01:18:35;;;;;;;8.45;3.85;;;;;;;;;;4874321;29;20064;-65
2023/04/18 01:21:07;;;;;;;9.93;4.43;;;;;;;;;;4816759;29;20057;-65
2023/04/18 01:23:38;;;;;;;9.38;4.13;;;;;;;;;;4852624;29;20061;-65
2023/04/18 01:26:08;;;;;;;9.75;3.72;;;;;;;;;;4837119;29;20046;-65
2023/04/18 01:28:40;;;;;;;9.23;3.85;;;;;;;;;;4837397;29;20050;-65
2023/04/18 01:31:10;;;;;;;12.25;4.10;;;;;;;;;;4828178;29;20069;-65
2023/04/18 01:33:41;;;;;;;10.27;3.97;;;;;;;;;;4833349;29;20561;-65
2023/04/18 01:36:11;;;;;;;7.65;4.03;;;;;;;;;;4884305;29;20061;-65
2023/04/18 01:38:41;;;;;;;7.47;4.18;;;;;;;;;;4893067;29;20059;-65
2023/04/18 01:41:11;;;;;;;9.85;4.40;;;;;;;;;;4877411;29;20612;-65
2023/04/18 01:43:42;;;;;;;8.18;4.53;;;;;;;;;;4898912;29;20055;-66
2023/04/18 01:46:12;;;;;;;9.25;4.35;;;;;;;;;;4921570;29;20066;-65
2023/04/18 01:48:43;;;;;;;8.07;4.00;;;;;;;;;;4895546;29;20053;-65
2023/04/18 01:51:13;;;;;;;11.18;4.32;;;;;;;;;;4861644;29;20044;-65
2023/04/18 01:53:43;;;;;;;9.20;4.22;;;;;;;;;;4892873;29;20123;-65
2023/04/18 01:56:13;;;;;;;16.45;4.47;;;;;;;;;;4862706;29;20071;-65
2023/04/18 01:58:45;;;;;;;9.93;4.20;;;;;;;;;;4902679;29;20586;-65
2023/04/18 02:01:15;;;;;;;11.45;4.50;;;;;;;;;;4911658;29;20047;-65
2023/04/18 02:03:45;;;;;;;11.93;4.25;;;;;;;;;;4875120;29;20060;-65
2023/04/18 02:06:16;;;;;;;9.77;4.30;;;;;;;;;;4846641;29;20053;-65
2023/04/18 02:08:48;;;;;;;9.40;3.97;;;;;;;;;;4810309;29;20058;-65
2023/04/18 02:11:18;;;;;;;14.68;4.30;;;;;;;;;;4840611;29;20106;-65
2023/04/18 02:13:48;;;;;;;12.88;4.13;;;;;;;;;;4825320;29;20069;-67
2023/04/18 02:16:18;;;;;;;9.23;4.07;;;;;;;;;;4840516;29;20507;-65
2023/04/18 02:18:51;;;;;;;7.25;4.05;;;;;;;;;;4818432;29;20547;-65
2023/04/18 02:21:21;;;;;;;11.63;4.13;;;;;;;;;;4815965;29;20050;-66
2023/04/18 02:23:52;;;;;;;8.15;4.03;;;;;;;;;;4821702;29;20058;-65
2023/04/18 02:26:22;;;;;;;8.60;3.80;;;;;;;;;;4812278;29;20055;-66
2023/04/18 02:28:52;;;;;;;7.60;3.60;;;;;;;;;;4821881;29;20066;-65
2023/04/18 02:31:22;;;;;;;8.45;3.80;;;;;;;;;;4839875;29;20050;-65
2023/04/18 02:33:52;;;;;;;8.85;4.35;;;;;;;;;;4840121;29;20066;-65
2023/04/18 02:36:24;;;;;;;8.63;3.92;;;;;;;;;;4839884;29;20054;-65
2023/04/18 02:38:55;;;;;;;15.27;5.25;;;;;;;;;;4849129;29;20510;-65
2023/04/18 02:41:24;;;;;;;9.38;4.13;;;;;;;;;;4885911;29;20055;-65
2023/04/18 02:43:54;;;;;;;7.70;4.15;;;;;;;;;;4895675;29;20060;-65
2023/04/18 02:46:25;;;;;;;10.48;4.60;;;;;;;;;;4904939;29;20045;-65
2023/04/18 02:48:55;;;;;;;8.90;4.13;;;;;;;;;;4894972;29;20162;-65
2023/04/18 02:51:26;;;;;;;11.82;4.45;;;;;;;;;;4876353;29;20164;-65
2023/04/18 02:53:59;;;;;;;11.07;4.22;;;;;;;;;;4857862;29;20174;-65
2023/04/18 02:56:38;;;;;;;10.73;4.65;;;;;;;;;;4820766;29;20061;-65
2023/04/18 02:59:44;;;;;;;9.35;4.43;;;;;;;;;;4780966;30;20452;-65
2023/04/18 03:02:17;;;;;;;9.43;3.38;;;;;;;;;;4757012;29;20179;-65
2023/04/18 03:04:53;;;;;;;8.07;3.45;;;;;;;;;;4734183;30;20059;-65
2023/04/18 03:07:23;;;;;;;4.50;2.58;;;;;;;;;;4749295;30;20052;-65
2023/04/18 03:09:54;;;;;;;4.63;2.85;;;;;;;;;;4751848;30;20052;-65
2023/04/18 03:12:29;;;;;;;5.78;3.03;;;;;;;;;;4766983;30;20059;-65
2023/04/18 03:15:00;;;;;;;4.57;2.53;;;;;;;;;;4766211;30;20059;-65
2023/04/18 03:17:31;;;;;;;5.45;2.80;;;;;;;;;;4766684;30;20052;-65
2023/04/18 03:20:02;;;;;;;8.50;3.35;;;;;;;;;;4717665;30;20057;-66
2023/04/18 03:22:32;;;;;;;5.78;2.80;;;;;;;;;;4713499;30;20064;-65
2023/04/18 03:25:02;;;;;;;9.50;3.00;;;;;;;;;;4716377;30;20830;-65
2023/04/18 03:27:45;;;;;;;8.95;3.13;;;;;;;;;;4732099;30;20440;-65
2023/04/18 03:30:17;;;;;;;5.82;2.78;;;;;;;;;;4734471;30;20052;-65
2023/04/18 03:32:55;;;;;;;12.18;2.80;;;;;;;;;;4751389;29;20051;-65
2023/04/18 03:35:25;;;;;;;5.22;2.67;;;;;;;;;;4802969;29;20443;-65
2023/04/18 03:37:56;;;;;;;6.43;2.58;;;;;;;;;;4791123;29;20062;-65
2023/04/18 03:40:30;;;;;;;5.57;2.55;;;;;;;;;;4755499;30;20051;-65
2023/04/18 03:43:07;;;;;;;9.95;2.97;;;;;;;;;;4761965;30;20056;-65
2023/04/18 03:45:37;;;;;;;8.55;2.92;;;;;;;;;;4765946;30;20532;-65
2023/04/18 03:48:07;;;;;;;11.00;2.50;;;;;;;;;;4797378;29;20070;-65
2023/04/18 03:50:42;;;;;;;5.43;2.70;;;;;;;;;;4771316;30;20522;-65
2023/04/18 03:53:13;;;;;;;6.30;2.55;;;;;;;;;;4766229;30;20074;-66
2023/04/18 03:55:43;;;;;;;7.28;2.72;;;;;;;;;;4796741;29;20054;-65
2023/04/18 03:58:22;;;;;;;8.13;3.15;;;;;;;;;;4828952;29;20096;-65
2023/04/18 04:00:53;;;;;;;5.53;2.47;;;;;;;;;;4779481;29;20497;-65
2023/04/18 04:03:23;;;;;;;3.80;1.92;;;;;;;;;;4776052;29;20094;-65
2023/04/18 04:05:54;;;;;;;4.22;2.17;;;;;;;;;;4820305;29;20054;-65
2023/04/18 04:08:24;;;;;;;6.07;2.35;;;;;;;;;;4820243;29;20519;-65
2023/04/18 04:10:56;;;;;;;5.35;2.10;;;;;;;;;;4819857;29;20038;-65
2023/04/18 04:13:26;;;;;;;4.57;2.17;;;;;;;;;;4813251;29;20049;-65
2023/04/18 04:15:57;;;;;;;3.55;1.90;;;;;;;;;;4831618;29;20094;-65
2023/04/18 04:18:30;;;;;;;5.00;2.10;;;;;;;;;;4827060;29;20069;-65
2023/04/18 04:21:03;;;;;;;4.85;2.22;;;;;;;;;;4816225;29;20050;-65
2023/04/18 04:23:53;;;;;;;5.53;2.40;;;;;;;;;;4801767;29;20062;-65
2023/04/18 04:26:42;;;;;;;10.13;2.45;;;;;;;;;;4831841;29;20050;-65
2023/04/18 04:29:20;;;;;;;8.13;2.63;;;;;;;;;;4837761;29;20095;-65
2023/04/18 04:31:50;;;;;;;7.65;2.33;;;;;;;;;;4837956;29;20054;-65
2023/04/18 04:34:33;;;;;;;6.60;2.58;;;;;;;;;;4837065;29;20049;-65
2023/04/18 04:37:05;;;;;;;5.95;2.42;;;;;;;;;;4804870;29;20424;-65
2023/04/18 04:39:42;;;;;;;7.03;2.13;;;;;;;;;;4801835;29;20051;-65
2023/04/18 04:42:30;;;;;;;7.28;2.40;;;;;;;;;;4801601;29;20054;-65
2023/04/18 04:45:09;;;;;;;5.00;1.88;;;;;;;;;;4837645;29;20062;-65
2023/04/18 04:47:39;;;;;;;3.75;2.13;;;;;;;;;;4822495;29;20061;-65
2023/04/18 04:50:14;;;;;;;5.97;2.28;;;;;;;;;;4801047;29;20100;-65
2023/04/18 04:52:44;;;;;;;6.15;1.95;;;;;;;;;;4803491;29;20066;-65
2023/04/18 04:55:16;;;;;;;3.85;2.33;;;;;;;;;;4819602;29;20058;-65
2023/04/18 04:57:46;;;;;;;4.85;2.60;;;;;;;;;;4784815;29;20060;-65
2023/04/18 05:00:31;;;;;;;7.68;2.28;;;;;;;;;;4778738;30;20105;-65
2023/04/18 05:03:01;;;;;;;4.70;2.10;;;;;;;;;;4783364;30;20074;-65
2023/04/18 05:05:31;;;;;;;3.60;1.88;;;;;;;;;;4790398;29;20058;-65
2023/04/18 05:08:02;;;;;;;7.68;2.38;;;;;;;;;;4801446;29;20059;-65
2023/04/18 05:10:35;;;;;;;6.82;2.08;;;;;;;;;;4834658;29;20550;-65
2023/04/18 05:13:06;;;;;;;6.60;2.08;;;;;;;;;;4822908;29;20062;-65
2023/04/18 05:15:38;;;;;;;3.67;1.85;;;;;;;;;;4849140;29;20061;-65
2023/04/18 05:18:08;;;;;;;5.80;2.00;;;;;;;;;;4867396;29;20061;-65
2023/04/18 05:20:39;;;;;;;7.90;2.10;;;;;;;;;;4874617;29;20068;-65
2023/04/18 05:23:09;;;;;;;4.60;1.77;;;;;;;;;;4843421;29;20057;-65
2023/04/18 05:25:39;;;;;;;7.25;1.85;;;;;;;;;;4843661;29;20057;-65
2023/04/18 05:28:09;;;;;;;3.80;2.17;;;;;;;;;;4865545;29;20067;-65
2023/04/18 05:30:39;;;;;;;5.50;2.08;;;;;;;;;;4911826;29;20060;-65
2023/04/18 05:33:10;;;;;;;6.50;2.30;;;;;;;;;;4923525;29;20060;-65
2023/04/18 05:35:40;;;;;;;4.85;2.08;;;;;;;;;;4867608;29;20052;-66
2023/04/18 05:38:10;;;;;;;3.60;1.98;;;;;;;;;;4931420;29;20056;-66
2023/04/18 05:40:41;;;;;;;5.10;2.17;;;;;;;;;;4918502;29;20527;-65
2023/04/18 05:43:11;;;;;;;4.80;1.95;;;;;;;;;;4922484;28;20047;-65
2023/04/18 05:45:41;;;;;;;4.68;2.10;;;;;;;;;;4951887;28;20058;-65
2023/04/18 05:48:11;;;;;;;4.93;2.22;;;;;;;;;;4940946;28;20054;-65
2023/04/18 05:50:41;;;;;;;6.18;2.00;;;;;;;;;;4973003;28;20051;-65
2023/04/18 05:53:11;;;;;;;6.90;2.13;;;;;;;;;;4941174;28;20534;-65
2023/04/18 05:55:41;;;;;;;6.32;2.22;;;;;;;;;;4972984;28;20050;-65
2023/04/18 05:58:11;;;;;;;4.30;2.40;;;;;;;;;;4966967;28;20567;-65
2023/04/18 06:00:42;;;;;;;7.57;2.55;;;;;;;;;;4937943;29;20074;-65
2023/04/18 06:03:12;;;;;;;5.60;2.38;;;;;;;;;;4937224;29;20043;-65
2023/04/18 06:05:43;;;;;;;8.68;2.00;;;;;;;;;;4953533;29;20051;-65
2023/04/18 06:08:13;;;;;;;3.67;1.90;;;;;;;;;;4953457;29;20105;-65
2023/04/18 06:10:43;;;;;;;4.53;2.20;;;;;;;;;;4921365;29;20051;-65
2023/04/18 06:13:14;;;;;;;5.93;2.13;;;;;;;;;;4923348;28;20058;-65
2023/04/18 06:15:44;;;;;;;8.57;2.20;;;;;;;;;;4960003;28;20131;-65
2023/04/18 06:18:14;;;;;;;3.42;1.88;;;;;;;;;;4959786;28;20050;-65
2023/04/18 06:20:44;;;;;;;9.38;2.05;;;;;;;;;;4943808;28;20519;-65
2023/04/18 06:23:15;;;;;;;3.90;2.10;;;;;;;;;;4994316;28;20057;-65
2023/04/18 06:25:45;;;;;;;6.50;2.33;;;;;;;;;;4975619;28;20072;-64
2023/04/18 06:28:15;;;;;;;4.28;2.20;;;;;;;;;;4976995;28;20077;-65
2023/04/18 06:30:45;;;;;;;3.95;1.92;;;;;;;;;;4994367;28;20042;-65
2023/04/18 06:33:15;;;;;;;6.00;1.92;;;;;;;;;;4994101;28;20073;-65
2023/04/18 06:35:45;;;;;;;7.68;1.92;;;;;;;;;;4994154;28;20501;-65
2023/04/18 06:38:15;;;;;;;4.20;2.10;;;;;;;;;;4993907;28;20039;-65
2023/04/18 06:40:46;;;;;;;3.78;1.92;;;;;;;;;;4993858;28;20054;-65
2023/04/18 06:43:16;;;;;;;12.45;2.38;;;;;;;;;;4993903;28;20046;-65
2023/04/18 06:45:46;;;;;;;7.85;3.10;;;;;;;;;;4939734;28;20392;-65
2023/04/18 06:48:16;;;;;;;9.43;2.20;;;;;;;;;;4924045;28;20055;-66
2023/04/18 06:50:46;;;;;;;6.25;2.40;;;;;;;;;;4923151;28;20058;-66
2023/04/18 06:53:16;;;;;;;7.50;1.67;;;;;;;;;;4971950;28;20503;-66
2023/04/18 06:55:47;;;;;;;5.95;2.38;;;;;;;;;;4971889;28;20549;-65
2023/04/18 06:58:17;;;;;;;5.32;2.05;;;;;;;;;;4949321;28;20454;-65
2023/04/18 07:00:50;;;;;;;5.03;1.75;;;;;;;;;;4977987;28;20046;-65
2023/04/18 07:03:20;;;;;;;7.70;2.15;;;;;;;;;;5010777;28;20145;-65
2023/04/18 07:05:51;;;;;;;10.27;2.33;;;;;;;;;;5010552;28;20113;-65
2023/04/18 07:08:21;;;;;;;4.30;1.77;;;;;;;;;;4978111;28;20122;-65
2023/04/18 07:10:51;;;;;;;6.95;2.00;;;;;;;;;;4978036;28;20061;-65
2023/04/18 07:13:21;;;;;;;9.40;2.10;;;;;;;;;;4961807;28;20074;-66
2023/04/18 07:15:51;;;;;;;6.65;2.35;;;;;;;;;;5010385;28;20053;-66
2023/04/18 07:18:22;;;;;;;5.72;2.17;;;;;;;;;;4939318;28;20047;-65
2023/04/18 07:21:08;;;;;;;6.63;3.03;;;;;;;;;;4955203;28;20088;-66
2023/04/18 07:23:40;;;;;;;10.65;2.10;;;;;;;;;;4982841;28;20069;-66
2023/04/18 07:26:12;;;;;;;7.32;2.00;;;;;;;;;;4990855;28;20050;-65
2023/04/18 07:28:42;;;;;;;6.45;1.73;;;;;;;;;;4942563;28;20069;-66
2023/04/18 07:31:13;;;;;;;7.82;2.42;;;;;;;;;;4990700;28;20375;-65
2023/04/18 07:33:43;;;;;;;7.53;2.08;;;;;;;;;;4974232;28;20399;-66
2023/04/18 07:36:13;;;;;;;6.07;2.10;;;;;;;;;;4959071;28;20426;-65
2023/04/18 07:38:43;;;;;;;5.47;2.60;;;;;;;;;;4990536;28;20201;-65
2023/04/18 07:41:13;;;;;;;6.20;2.83;;;;;;;;;;4990461;28;20057;-65
2023/04/18 07:43:43;;;;;;;9.25;2.25;;;;;;;;;;4990343;28;20066;-65
2023/04/18 07:46:13;;;;;;;4.32;2.50;;;;;;;;;;4990376;28;20141;-66
2023/04/18 07:48:45;;;;;;;5.53;2.15;;;;;;;;;;4994717;28;20061;-65
2023/04/18 07:51:15;;;;;;;3.92;2.15;;;;;;;;;;4977716;28;20064;-65
2023/04/18 07:53:45;;;;;;;5.10;2.20;;;;;;;;;;4977675;28;20069;-65
2023/04/18 07:56:15;;;;;;;6.18;2.30;;;;;;;;;;4977677;28;20062;-65
2023/04/18 07:58:45;;;;;;;8.48;2.42;;;;;;;;;;4977444;28;20057;-65
2023/04/18 08:01:17;;;;;;;8.82;2.13;;;;;;;;;;4977385;28;20050;-66
2023/04/18 08:03:47;;;;;;;12.07;2.55;;;;;;;;;;5012010;28;20057;-66
2023/04/18 08:06:17;;;;;;;6.32;2.13;;;;;;;;;;4993192;28;20049;-66
2023/04/18 08:08:47;;;;;;;7.30;2.38;;;;;;;;;;4993205;28;20057;-65
2023/04/18 08:11:17;;;;;;;4.90;2.15;;;;;;;;;;5011700;28;20048;-66
2023/04/18 08:13:47;;;;;;;7.07;2.38;;;;;;;;;;5011920;28;20042;-66
2023/04/18 08:16:17;;;;;;;5.18;2.30;;;;;;;;;;5011544;28;20045;-65
2023/04/18 08:18:48;;;;;;;4.72;2.10;;;;;;;;;;4977176;28;20054;-65
2023/04/18 08:21:18;;;;;;;6.50;3.20;;;;;;;;;;4960858;28;20437;-65
2023/04/18 08:23:48;;;;;;;5.65;2.63;;;;;;;;;;5011660;28;20054;-66
2023/04/18 08:26:18;;;;;;;4.70;2.30;;;;;;;;;;5011520;28;20049;-66
2023/04/18 08:28:49;;;;;;;6.55;2.33;;;;;;;;;;4993088;28;20221;-65
2023/04/18 08:31:20;;;;;;;5.22;2.33;;;;;;;;;;5011301;28;20057;-65
2023/04/18 08:33:50;;;;;;;5.57;2.40;;;;;;;;;;4960639;28;20064;-65
2023/04/18 08:36:20;;;;;;;8.80;2.78;;;;;;;;;;5011406;28;20928;-65
2023/04/18 08:38:50;;;;;;;4.82;2.35;;;;;;;;;;5011323;28;20114;-65
2023/04/18 08:41:22;;;;;;;4.80;2.40;;;;;;;;;;4976701;28;20061;-66
2023/04/18 08:43:52;;;;;;;5.60;2.20;;;;;;;;;;4992796;28;20057;-66
2023/04/18 08:46:25;;;;;;;5.18;2.40;;;;;;;;;;4978074;28;20045;-66
2023/04/18 08:48:58;;;;;;;6.18;2.45;;;;;;;;;;5011319;28;20049;-65
2023/04/18 08:51:29;;;;;;;;;;;;;;;;;;5011462;28;20049;-65
2023/04/18 08:54:03;;;;;;;4.50;2.22;;;;;;;;;;4992831;28;20393;-66
2023/04/18 08:56:36;;;;;;;5.72;2.47;;;;;;;;;;4992600;28;20442;-66
2023/04/18 08:59:06;;;;;;;7.40;2.33;;;;;;;;;;4963613;28;20058;-65
2023/04/18 09:02:00;;;;;;;4.70;2.40;;;;;;;;;;4991493;28;20046;-65
2023/04/18 09:04:34;;;;;;;7.95;3.30;;;;;;;;;;4947452;28;20068;-65
2023/04/18 09:07:10;;;;;;;4.93;2.40;;;;;;;;;;4951703;28;20067;-65
2023/04/18 09:09:53;;;;;;;5.05;2.60;;;;;;;;;;4969938;28;20054;-65
2023/04/18 09:12:27;;;;;;;6.63;2.58;;;;;;;;;;4969533;28;20395;-65
2023/04/18 09:15:09;;;;;;;4.50;2.75;;;;;;;;;;4902810;28;20062;-65
2023/04/18 09:17:44;;;;;;;6.70;2.50;;;;;;;;;;4954288;29;20059;-66
2023/04/18 09:20:43;;;;;;;6.43;2.42;;;;;;;;;;4922296;29;20085;-65
2023/04/18 09:23:23;;;;;;;5.53;2.80;;;;;;;;;;4907383;29;20059;-65
2023/04/18 09:25:53;;;;;;;8.32;2.80;;;;;;;;;;4922986;29;20562;-65
2023/04/18 09:28:31;;;;;;;5.10;2.38;;;;;;;;;;4954280;29;20094;-65
2023/04/18 09:31:10;;;;;;;8.38;3.13;;;;;;;;;;4953995;28;20059;-65
2023/04/18 09:33:52;;;;;;;8.57;2.50;;;;;;;;;;4953766;29;20500;-65
2023/04/18 09:36:26;;;;;;;5.50;2.95;;;;;;;;;;4954019;29;20055;-66
2023/04/18 09:38:56;;;;;;;5.75;3.10;;;;;;;;;;4953721;29;20058;-66
2023/04/18 09:41:26;;;;;;;5.53;2.70;;;;;;;;;;4915569;29;20503;-65
2023/04/18 09:44:16;;;;;;;4.78;2.58;;;;;;;;;;4903504;29;20055;-65
2023/04/18 09:46:48;;;;;;;6.28;3.40;;;;;;;;;;4934617;29;20059;-65
2023/04/18 09:49:19;;;;;;;8.77;2.78;;;;;;;;;;4869732;29;20052;-65
2023/04/18 09:51:52;;;;;;;9.35;3.50;;;;;;;;;;4918402;29;20052;-65
2023/04/18 09:54:24;;;;;;;8.77;3.40;;;;;;;;;;4930493;29;20551;-65
2023/04/18 09:56:55;;;;;;;6.18;3.45;;;;;;;;;;4899552;29;20060;-65
2023/04/18 09:59:51;;;;;;;6.07;3.05;;;;;;;;;;4949477;29;20060;-64
2023/04/18 10:02:23;;;;;;;7.25;3.80;;;;;;;;;;4934060;29;20060;-65
2023/04/18 10:04:54;;;;;;;8.52;3.67;;;;;;;;;;4918719;29;20060;-64
2023/04/18 10:07:26;;;;;;;7.25;3.45;;;;;;;;;;4933971;29;20558;-63
2023/04/18 10:09:56;;;;;;;6.35;3.22;;;;;;;;;;4933989;29;20052;-64
2023/04/18 10:12:26;;;;;;;7.95;3.63;;;;;;;;;;4933943;29;20052;-64
2023/04/18 10:14:58;;;;;;;6.05;3.53;;;;;;;;;;4933877;29;20551;-64
2023/04/18 10:17:28;;;;;;;9.75;3.78;;;;;;;;;;4871851;29;20455;-64
2023/04/18 10:20:11;;;;;;;10.15;3.65;;;;;;;;;;4901657;29;20130;-64
2023/04/18 10:22:42;;;;;;;9.57;3.67;;;;;;;;;;4932329;29;20052;-64
2023/04/18 10:25:12;;;;;;;10.00;3.60;;;;;;;;;;4923145;29;20059;-64
2023/04/18 10:27:48;;;;;;;9.23;3.85;;;;;;;;;;4976551;28;20057;-64
2023/04/18 10:30:18;;;;;;;7.57;3.75;;;;;;;;;;4945652;28;20466;-64
2023/04/18 10:32:54;;;;;;;9.35;4.47;;;;;;;;;;4968890;28;20055;-64
2023/04/18 10:35:24;;;;;;;11.13;4.13;;;;;;;;;;4921529;28;20070;-64
2023/04/18 10:37:58;;;;;;;11.50;4.20;;;;;;;;;;4955655;28;20054;-64
2023/04/18 10:40:34;;;;;;;8.63;4.13;;;;;;;;;;4983673;28;20510;-64
2023/04/18 10:43:05;;;;;;;12.85;3.92;;;;;;;;;;4990355;28;20054;-64
2023/04/18 10:45:35;;;;;;;10.27;4.18;;;;;;;;;;4952185;29;20051;-64
2023/04/18 10:48:34;;;;;;;11.75;4.32;;;;;;;;;;4914311;29;20044;-64
2023/04/18 10:51:18;;;;;;;9.77;3.80;;;;;;;;;;4914061;29;20537;-64
2023/04/18 10:53:59;;;;;;;9.55;4.60;;;;;;;;;;4882681;29;20048;-64
2023/04/18 10:56:33;;;;;;;7.90;4.10;;;;;;;;;;4833639;29;20061;-64
2023/04/18 10:59:03;;;;;;;8.13;4.18;;;;;;;;;;4876258;29;20514;-64
2023/04/18 11:01:37;;;;;;;8.52;4.00;;;;;;;;;;4895117;29;20083;-65
2023/04/18 11:04:11;;;;;;;;;;;;;;;;;;4864525;29;20052;-64
2023/04/18 11:06:50;;;;;;;8.98;4.28;;;;;;;;;;4895334;29;19923;-64
2023/04/18 11:09:21;;;;;;;9.13;4.03;;;;;;;;;;4894926;29;20064;-64
2023/04/18 11:12:09;;;;;;;9.30;4.43;;;;;;;;;;4879622;29;20073;-65
2023/04/18 11:14:43;;;;;;;7.70;4.10;;;;;;;;;;4857294;29;20065;-64
2023/04/18 11:17:20;;;;;;;9.90;4.60;;;;;;;;;;4875390;29;20447;-64
2023/04/18 11:19:59;;;;;;;8.00;3.83;;;;;;;;;;4876110;29;20064;-64
2023/04/18 11:22:29;;;;;;;6.38;3.25;;;;;;;;;;4867940;29;20060;-64
2023/04/18 11:25:21;;;;;;;8.13;3.70;;;;;;;;;;4916837;29;20052;-64
2023/04/18 11:27:53;;;;;;;7.05;3.55;;;;;;;;;;4932470;29;20063;-65
2023/04/18 11:30:24;;;;;;;7.22;3.15;;;;;;;;;;4932545;29;20500;-64
2023/04/18 11:32:54;;;;;;;7.70;3.55;;;;;;;;;;4916386;29;20067;-64
2023/04/18 11:35:25;;;;;;;8.40;3.50;;;;;;;;;;4951389;29;20058;-64
2023/04/18 11:37:55;;;;;;;11.43;4.95;;;;;;;;;;4925230;29;20413;-64
2023/04/18 11:40:26;;;;;;;7.32;3.50;;;;;;;;;;4932263;29;20056;-65
2023/04/18 11:42:56;;;;;;;7.10;3.78;;;;;;;;;;4932112;29;20051;-64
2023/04/18 11:45:26;;;;;;;8.02;3.80;;;;;;;;;;4931969;29;20516;-65
2023/04/18 11:47:57;;;;;;;8.35;4.00;;;;;;;;;;4915582;29;20059;-64
2023/04/18 11:50:34;;;;;;;9.13;3.50;;;;;;;;;;4932280;29;20068;-64
2023/04/18 11:53:04;;;;;;;8.40;3.90;;;;;;;;;;4940180;29;20065;-64
2023/04/18 11:55:35;;;;;;;8.13;3.60;;;;;;;;;;4950598;29;20484;-64
2023/04/18 11:58:05;;;;;;;6.65;3.78;;;;;;;;;;4950586;29;20047;-64
2023/04/18 12:00:38;;;;;;;9.18;3.33;;;;;;;;;;4950784;29;20051;-64
2023/04/18 12:03:15;;;;;;;8.52;4.00;;;;;;;;;;4934818;28;20077;-65
2023/04/18 12:05:46;;;;;;;6.93;3.70;;;;;;;;;;4988949;28;20057;-64
2023/04/18 12:08:20;;;;;;;8.13;3.65;;;;;;;;;;4992893;28;20057;-65
2023/04/18 12:10:52;;;;;;;5.40;3.20;;;;;;;;;;5011380;28;20042;-65
2023/04/18 12:13:31;;;;;;;5.63;3.08;;;;;;;;;;4946223;28;20054;-64
2023/04/18 12:16:02;;;;;;;7.57;3.03;;;;;;;;;;4969789;28;20522;-65
2023/04/18 12:18:32;;;;;;;5.72;3.03;;;;;;;;;;4917828;28;20059;-64
2023/04/18 12:21:04;;;;;;;9.88;3.20;;;;;;;;;;4906058;28;20050;-64
2023/04/18 12:23:41;;;;;;;4.88;2.75;;;;;;;;;;4938226;28;20090;-65
2023/04/18 12:26:13;;;;;;;6.63;2.47;;;;;;;;;;4970079;28;20057;-64
2023/04/18 12:28:51;;;;;;;6.22;3.22;;;;;;;;;;4970005;28;20170;-64
2023/04/18 12:31:21;;;;;;;5.68;2.65;;;;;;;;;;4969681;28;20055;-64
2023/04/18 12:33:53;;;;;;;6.60;2.53;;;;;;;;;;4921202;28;20053;-64
2023/04/18 12:36:27;;;;;;;5.55;2.75;;;;;;;;;;4918151;29;20047;-65
2023/04/18 12:38:57;;;;;;;7.18;2.85;;;;;;;;;;4910398;29;20062;-65
2023/04/18 12:41:27;;;;;;;6.15;2.67;;;;;;;;;;4933638;29;20059;-64
2023/04/18 12:43:57;;;;;;;5.35;2.67;;;;;;;;;;4950234;28;20417;-65
2023/04/18 12:46:27;;;;;;;4.75;2.30;;;;;;;;;;4969896;28;20058;-64
2023/04/18 12:48:57;;;;;;;5.40;2.42;;;;;;;;;;4968969;28;20055;-64
2023/04/18 12:51:28;;;;;;;6.32;2.30;;;;;;;;;;4985429;28;20070;-64
2023/04/18 12:53:58;;;;;;;6.45;2.53;;;;;;;;;;4948852;28;20415;-64
2023/04/18 12:56:28;;;;;;;5.15;2.28;;;;;;;;;;4949686;29;20051;-64
2023/04/18 12:58:58;;;;;;;4.60;2.08;;;;;;;;;;4958625;28;20065;-65
2023/04/18 13:01:29;;;;;;;6.28;2.28;;;;;;;;;;4969413;28;20057;-64
2023/04/18 13:03:59;;;;;;;2.70;1.90;;;;;;;;;;4937355;28;20063;-64
2023/04/18 13:06:40;;;;;;;4.13;1.90;;;;;;;;;;4950114;29;20059;-64
2023/04/18 13:09:10;;;;;;;3.78;2.00;;;;;;;;;;4890661;29;20515;-64
2023/04/18 13:11:41;;;;;;;8.60;1.75;;;;;;;;;;4915546;29;20063;-64
2023/04/18 13:14:11;;;;;;;2.90;1.58;;;;;;;;;;4946448;28;20535;-64
2023/04/18 13:16:41;;;;;;;3.10;1.92;;;;;;;;;;4952033;28;20055;-64
2023/04/18 13:19:11;;;;;;;5.45;2.22;;;;;;;;;;4934248;29;20458;-64
2023/04/18 13:21:42;;;;;;;4.00;1.98;;;;;;;;;;4936427;28;20073;-64
2023/04/18 13:24:12;;;;;;;5.78;2.33;;;;;;;;;;4926349;28;20651;-65
2023/04/18 13:26:42;;;;;;;3.08;1.70;;;;;;;;;;4909584;29;20219;-65
2023/04/18 13:29:12;;;;;;;3.97;1.73;;;;;;;;;;4902399;29;20062;-64
2023/04/18 13:31:42;;;;;;;4.13;1.63;;;;;;;;;;4950150;29;20055;-64
2023/04/18 13:34:13;;;;;;;3.80;1.65;;;;;;;;;;4913712;28;20051;-64
2023/04/18 13:36:43;;;;;;;3.72;1.70;;;;;;;;;;4930699;29;20048;-65
2023/04/18 13:39:14;;;;;;;5.82;1.38;;;;;;;;;;4901625;29;20047;-64
2023/04/18 13:41:44;;;;;;;2.90;1.20;;;;;;;;;;4937547;29;20047;-64
2023/04/18 13:44:14;;;;;;;2.75;1.33;;;;;;;;;;4948527;28;20059;-65
2023/04/18 13:46:45;;;;;;;3.58;1.83;;;;;;;;;;4955696;28;20393;-64
2023/04/18 13:49:15;;;;;;;4.07;1.40;;;;;;;;;;4958095;28;20058;-64
2023/04/18 13:51:45;;;;;;;2.65;1.55;;;;;;;;;;4952402;28;20059;-65
2023/04/18 13:54:16;;;;;;;2.88;1.30;;;;;;;;;;4943677;28;20051;-64
2023/04/18 13:56:46;;;;;;;5.47;1.52;;;;;;;;;;4954535;28;20420;-64
2023/04/18 13:59:17;;;;;;;2.47;1.30;;;;;;;;;;4964462;28;20069;-64
2023/04/18 14:01:47;;;;;;;3.90;1.30;;;;;;;;;;4972448;28;20519;-64
2023/04/18 14:04:20;;;;;;;2.00;1.15;;;;;;;;;;4933743;29;20401;-64
2023/04/18 14:06:51;;;;;;;3.20;1.27;;;;;;;;;;4936929;28;20066;-64
2023/04/18 14:09:21;;;;;;;3.92;1.27;;;;;;;;;;4972563;28;20066;-64
2023/04/18 14:11:51;;;;;;;2.00;1.02;;;;;;;;;;4883607;29;20052;-64
2023/04/18 14:14:22;;;;;;;1.40;0.70;;;;;;;;;;4915023;29;20056;-64
2023/04/18 14:16:52;;;;;;;2.28;0.50;;;;;;;;;;4914271;29;20512;-64
2023/04/18 14:19:23;;;;;;;1.25;0.60;;;;;;;;;;4914994;29;20059;-64
2023/04/18 14:21:53;;;;;;;2.95;0.80;;;;;;;;;;4915119;29;20857;-63
2023/04/18 14:24:23;;;;;;;1.00;0.50;;;;;;;;;;4907721;29;20052;-63
2023/04/18 14:26:53;;;;;;;1.00;0.50;;;;;;;;;;4914620;29;20416;-64
2023/04/18 14:29:23;;;;;;;2.20;0.40;;;;;;;;;;4914630;29;20592;-63
2023/04/18 14:31:53;;;;;;;1.92;0.57;;;;;;;;;;4929919;29;20052;-63
2023/04/18 14:34:23;;;;;;;0.77;0.40;;;;;;;;;;4914636;29;20457;-64
2023/04/18 14:36:53;;;;;;;0.70;0.35;;;;;;;;;;4914665;29;20064;-63
2023/04/18 14:39:23;;;;;;;4.53;0.93;;;;;;;;;;4884330;29;20060;-63
2023/04/18 14:41:54;;;;;;;1.50;0.40;;;;;;;;;;4932800;29;20059;-63
2023/04/18 14:44:24;;;;;;;1.95;0.50;;;;;;;;;;4936546;29;20062;-63
2023/04/18 14:46:54;;;;;;;1.80;0.50;;;;;;;;;;4921496;29;20166;-63
2023/04/18 14:49:24;;;;;;;1.67;0.60;;;;;;;;;;4939673;28;20065;-64
2023/04/18 14:51:54;;;;;;;1.88;0.28;;;;;;;;;;4993501;28;20051;-63
2023/04/18 14:54:27;;;;;;;0.95;0.43;;;;;;;;;;4993634;28;20494;-64
2023/04/18 14:57:00;;;;;;;5.25;0.50;;;;;;;;;;4956272;28;20046;-64
2023/04/18 14:59:30;;;;;;;0.60;0.35;;;;;;;;;;4932549;28;20520;-63
2023/04/18 15:02:00;;;;;;;1.35;0.40;;;;;;;;;;4971485;28;20059;-64
2023/04/18 15:04:30;;;;;;;1.25;0.50;;;;;;;;;;4955697;28;20060;-64
2023/04/18 15:07:01;;;;;;;1.67;0.70;;;;;;;;;;4923626;28;20513;-63
2023/04/18 15:09:38;;;;;;;0.88;0.50;;;;;;;;;;4940466;28;20055;-64
2023/04/18 15:12:09;;;;;;;1.40;0.50;;;;;;;;;;4967538;28;20059;-64